sensor_id;sensor_type;location;lat;lon;timestamp;temperature;humidity
74359;DHT22;62792;46.236;6.040;2022-09-20T00:02:40;22.30;54.00
74359;DHT22;62792;46.236;6.040;2022-09-20T00:07:43;22.30;53.90
74359;DHT22;62792;46.236;6.040;2022-09-20T00:12:47;22.30;53.90
74359;DHT22;62792;46.236;6.040;2022-09-20T00:17:49;22.30;53.90
74359;DHT22;62792;46.236;6.040;2022-09-20T00:22:52;22.30;54.00
74359;DHT22;62792;46.236;6.040;2022-09-20T00:27:56;22.30;53.70
74359;DHT22;62792;46.236;6.040;2022-09-20T00:32:59;22.30;54.00
74359;DHT22;62792;46.236;6.040;2022-09-20T00:38:01;22.30;53.90
74359;DHT22;62792;46.236;6.040;2022-09-20T00:43:06;22.20;53.90
74359;DHT22;62792;46.236;6.040;2022-09-20T00:48:12;22.20;53.80
74359;DHT22;62792;46.236;6.040;2022-09-20T00:53:17;22.30;54.00
74359;DHT22;62792;46.236;6.040;2022-09-20T00:58:23;22.20;53.80
74359;DHT22;62792;46.236;6.040;2022-09-20T01:03:27;22.20;53.60
74359;DHT22;62792;46.236;6.040;2022-09-20T01:08:31;22.20;53.90
74359;DHT22;62792;46.236;6.040;2022-09-20T01:13:36;22.20;54.00
74359;DHT22;62792;46.236;6.040;2022-09-20T01:18:39;22.20;54.00
74359;DHT22;62792;46.236;6.040;2022-09-20T01:23:44;22.20;54.00
74359;DHT22;62792;46.236;6.040;2022-09-20T01:28:51;22.20;54.00
74359;DHT22;62792;46.236;6.040;2022-09-20T01:33:57;22.20;53.80
74359;DHT22;62792;46.236;6.040;2022-09-20T01:39:03;22.10;54.00
74359;DHT22;62792;46.236;6.040;2022-09-20T01:44:11;22.10;53.80
74359;DHT22;62792;46.236;6.040;2022-09-20T01:49:18;22.10;53.90
74359;DHT22;62792;46.236;6.040;2022-09-20T01:54:31;22.10;53.90
74359;DHT22;62792;46.236;6.040;2022-09-20T01:59:49;22.10;53.80
74359;DHT22;62792;46.236;6.040;2022-09-20T02:10:26;22.00;53.80
74359;DHT22;62792;46.236;6.040;2022-09-20T02:15:38;22.10;53.70
74359;DHT22;62792;46.236;6.040;2022-09-20T02:20:43;22.10;53.70
74359;DHT22;62792;46.236;6.040;2022-09-20T02:25:55;22.00;53.80
74359;DHT22;62792;46.236;6.040;2022-09-20T02:31:05;22.00;53.90
74359;DHT22;62792;46.236;6.040;2022-09-20T02:36:17;22.00;54.00
74359;DHT22;62792;46.236;6.040;2022-09-20T02:41:25;22.10;53.90
74359;DHT22;62792;46.236;6.040;2022-09-20T02:46:32;22.00;53.90
74359;DHT22;62792;46.236;6.040;2022-09-20T02:51:39;22.00;53.80
74359;DHT22;62792;46.236;6.040;2022-09-20T02:56:44;22.00;53.90
74359;DHT22;62792;46.236;6.040;2022-09-20T03:01:51;22.00;53.80
74359;DHT22;62792;46.236;6.040;2022-09-20T03:07:00;22.10;53.70
74359;DHT22;62792;46.236;6.040;2022-09-20T03:12:11;22.10;53.80
74359;DHT22;62792;46.236;6.040;2022-09-20T03:17:19;22.00;53.70
74359;DHT22;62792;46.236;6.040;2022-09-20T03:22:26;22.00;53.70
74359;DHT22;62792;46.236;6.040;2022-09-20T03:27:31;21.90;53.90
74359;DHT22;62792;46.236;6.040;2022-09-20T03:32:43;22.00;53.60
74359;DHT22;62792;46.236;6.040;2022-09-20T03:37:50;21.90;53.60
74359;DHT22;62792;46.236;6.040;2022-09-20T03:42:55;21.90;53.80
74359;DHT22;62792;46.236;6.040;2022-09-20T03:48:09;21.90;54.00
74359;DHT22;62792;46.236;6.040;2022-09-20T03:58:54;21.80;53.80
74359;DHT22;62792;46.236;6.040;2022-09-20T04:04:05;21.90;53.80
74359;DHT22;62792;46.236;6.040;2022-09-20T04:14:37;21.90;53.40
74359;DHT22;62792;46.236;6.040;2022-09-20T04:19:44;21.80;53.70
74359;DHT22;62792;46.236;6.040;2022-09-20T04:24:49;21.80;53.60
74359;DHT22;62792;46.236;6.040;2022-09-20T04:29:54;21.80;53.60
74359;DHT22;62792;46.236;6.040;2022-09-20T04:35:02;21.80;53.50
74359;DHT22;62792;46.236;6.040;2022-09-20T04:40:36;21.80;53.70
74359;DHT22;62792;46.236;6.040;2022-09-20T04:45:53;21.80;53.60
74359;DHT22;62792;46.236;6.040;2022-09-20T04:51:23;21.80;53.60
74359;DHT22;62792;46.236;6.040;2022-09-20T04:56:40;21.80;53.50
74359;DHT22;62792;46.236;6.040;2022-09-20T05:12:43;21.70;53.70
74359;DHT22;62792;46.236;6.040;2022-09-20T05:17:55;21.80;53.50
74359;DHT22;62792;46.236;6.040;2022-09-20T05:28:30;21.70;53.40
74359;DHT22;62792;46.236;6.040;2022-09-20T05:33:36;21.70;53.40
74359;DHT22;62792;46.236;6.040;2022-09-20T05:38:44;21.70;53.30
74359;DHT22;62792;46.236;6.040;2022-09-20T05:43:53;21.70;53.40
74359;DHT22;62792;46.236;6.040;2022-09-20T05:49:02;21.70;53.50
74359;DHT22;62792;46.236;6.040;2022-09-20T05:54:16;21.80;53.40
74359;DHT22;62792;46.236;6.040;2022-09-20T05:59:31;21.70;53.50
74359;DHT22;62792;46.236;6.040;2022-09-20T06:04:37;21.70;53.30
74359;DHT22;62792;46.236;6.040;2022-09-20T06:09:45;21.70;53.10
74359;DHT22;62792;46.236;6.040;2022-09-20T06:14:52;21.70;53.20
74359;DHT22;62792;46.236;6.040;2022-09-20T06:20:07;21.70;53.40
74359;DHT22;62792;46.236;6.040;2022-09-20T06:25:16;21.70;53.40
74359;DHT22;62792;46.236;6.040;2022-09-20T06:30:23;21.70;53.30
74359;DHT22;62792;46.236;6.040;2022-09-20T06:35:30;21.60;52.00
74359;DHT22;62792;46.236;6.040;2022-09-20T06:40:36;21.60;51.80
74359;DHT22;62792;46.236;6.040;2022-09-20T06:46:00;21.60;50.50
74359;DHT22;62792;46.236;6.040;2022-09-20T06:51:03;21.70;50.90
74359;DHT22;62792;46.236;6.040;2022-09-20T06:56:06;21.90;50.80
74359;DHT22;62792;46.236;6.040;2022-09-20T07:01:11;21.90;51.50
74359;DHT22;62792;46.236;6.040;2022-09-20T07:06:14;22.00;51.80
74359;DHT22;62792;46.236;6.040;2022-09-20T07:11:20;22.20;52.00
74359;DHT22;62792;46.236;6.040;2022-09-20T07:16:24;22.10;52.00
74359;DHT22;62792;46.236;6.040;2022-09-20T07:21:27;22.10;52.00
74359;DHT22;62792;46.236;6.040;2022-09-20T07:26:30;22.10;52.00
74359;DHT22;62792;46.236;6.040;2022-09-20T07:31:34;22.20;52.00
74359;DHT22;62792;46.236;6.040;2022-09-20T07:36:37;22.30;51.70
74359;DHT22;62792;46.236;6.040;2022-09-20T07:41:39;22.40;51.60
74359;DHT22;62792;46.236;6.040;2022-09-20T07:46:45;22.50;51.70
74359;DHT22;62792;46.236;6.040;2022-09-20T07:51:49;22.60;52.10
74359;DHT22;62792;46.236;6.040;2022-09-20T07:56:52;22.60;51.60
74359;DHT22;62792;46.236;6.040;2022-09-20T08:01:56;22.80;51.90
74359;DHT22;62792;46.236;6.040;2022-09-20T08:07:00;22.70;51.90
74359;DHT22;62792;46.236;6.040;2022-09-20T08:12:03;22.70;51.80
74359;DHT22;62792;46.236;6.040;2022-09-20T08:17:27;22.80;51.60
74359;DHT22;62792;46.236;6.040;2022-09-20T08:22:30;22.90;51.40
74359;DHT22;62792;46.236;6.040;2022-09-20T08:27:33;22.90;51.40
74359;DHT22;62792;46.236;6.040;2022-09-20T08:32:38;23.00;51.50
74359;DHT22;62792;46.236;6.040;2022-09-20T08:37:41;23.10;51.40
74359;DHT22;62792;46.236;6.040;2022-09-20T08:42:45;23.10;51.40
74359;DHT22;62792;46.236;6.040;2022-09-20T08:47:50;23.10;51.40
74359;DHT22;62792;46.236;6.040;2022-09-20T08:52:59;23.10;51.40
74359;DHT22;62792;46.236;6.040;2022-09-20T08:58:07;23.10;51.50
74359;DHT22;62792;46.236;6.040;2022-09-20T09:03:12;23.10;51.50
74359;DHT22;62792;46.236;6.040;2022-09-20T09:08:18;23.00;51.60
74359;DHT22;62792;46.236;6.040;2022-09-20T09:13:23;23.00;51.80
74359;DHT22;62792;46.236;6.040;2022-09-20T09:18:30;23.00;51.70
74359;DHT22;62792;46.236;6.040;2022-09-20T09:23:39;23.00;51.90
74359;DHT22;62792;46.236;6.040;2022-09-20T09:28:42;23.00;51.90
74359;DHT22;62792;46.236;6.040;2022-09-20T09:33:46;23.00;51.80
74359;DHT22;62792;46.236;6.040;2022-09-20T09:38:49;22.90;51.20
74359;DHT22;62792;46.236;6.040;2022-09-20T09:43:59;22.90;51.20
74359;DHT22;62792;46.236;6.040;2022-09-20T09:49:07;22.90;51.30
74359;DHT22;62792;46.236;6.040;2022-09-20T09:54:13;23.00;51.00
74359;DHT22;62792;46.236;6.040;2022-09-20T09:59:23;23.10;50.30
74359;DHT22;62792;46.236;6.040;2022-09-20T10:04:33;23.20;50.60
74359;DHT22;62792;46.236;6.040;2022-09-20T10:09:50;23.20;50.70
74359;DHT22;62792;46.236;6.040;2022-09-20T10:15:00;23.30;50.60
74359;DHT22;62792;46.236;6.040;2022-09-20T10:20:22;23.20;50.90
74359;DHT22;62792;46.236;6.040;2022-09-20T10:25:30;23.20;50.60
74359;DHT22;62792;46.236;6.040;2022-09-20T10:30:40;23.20;50.90
74359;DHT22;62792;46.236;6.040;2022-09-20T10:41:13;23.10;51.10
74359;DHT22;62792;46.236;6.040;2022-09-20T10:46:37;23.10;51.20
74359;DHT22;62792;46.236;6.040;2022-09-20T10:51:44;23.10;51.40
74359;DHT22;62792;46.236;6.040;2022-09-20T10:56:51;23.00;51.20
74359;DHT22;62792;46.236;6.040;2022-09-20T11:02:11;23.00;50.30
74359;DHT22;62792;46.236;6.040;2022-09-20T11:07:16;23.00;50.20
74359;DHT22;62792;46.236;6.040;2022-09-20T11:12:22;22.80;49.70
74359;DHT22;62792;46.236;6.040;2022-09-20T11:17:28;22.70;49.50
74359;DHT22;62792;46.236;6.040;2022-09-20T11:22:33;22.70;49.60
74359;DHT22;62792;46.236;6.040;2022-09-20T11:27:42;22.70;49.60
74359;DHT22;62792;46.236;6.040;2022-09-20T11:32:46;22.70;49.70
74359;DHT22;62792;46.236;6.040;2022-09-20T11:37:51;22.80;50.00
74359;DHT22;62792;46.236;6.040;2022-09-20T11:42:57;22.80;50.40
74359;DHT22;62792;46.236;6.040;2022-09-20T11:48:05;22.80;50.40
74359;DHT22;62792;46.236;6.040;2022-09-20T11:53:12;23.00;50.10
74359;DHT22;62792;46.236;6.040;2022-09-20T11:58:19;23.10;49.90
74359;DHT22;62792;46.236;6.040;2022-09-20T12:03:24;23.20;49.60
74359;DHT22;62792;46.236;6.040;2022-09-20T12:08:29;23.20;48.70
74359;DHT22;62792;46.236;6.040;2022-09-20T12:13:35;23.30;48.60
74359;DHT22;62792;46.236;6.040;2022-09-20T12:18:46;23.30;48.70
74359;DHT22;62792;46.236;6.040;2022-09-20T12:34:40;23.40;48.30
74359;DHT22;62792;46.236;6.040;2022-09-20T12:39:49;23.40;48.00
74359;DHT22;62792;46.236;6.040;2022-09-20T12:44:56;23.40;48.00
74359;DHT22;62792;46.236;6.040;2022-09-20T12:50:02;23.40;47.80
74359;DHT22;62792;46.236;6.040;2022-09-20T12:55:38;23.40;47.60
74359;DHT22;62792;46.236;6.040;2022-09-20T13:00:44;23.40;47.70
74359;DHT22;62792;46.236;6.040;2022-09-20T13:05:49;23.40;47.60
74359;DHT22;62792;46.236;6.040;2022-09-20T13:10:56;23.40;47.20
74359;DHT22;62792;46.236;6.040;2022-09-20T13:16:03;23.50;47.10
74359;DHT22;62792;46.236;6.040;2022-09-20T13:21:09;23.50;47.00
74359;DHT22;62792;46.236;6.040;2022-09-20T13:26:12;23.70;46.20
74359;DHT22;62792;46.236;6.040;2022-09-20T13:31:26;23.60;45.90
74359;DHT22;62792;46.236;6.040;2022-09-20T13:36:30;23.80;45.90
74359;DHT22;62792;46.236;6.040;2022-09-20T13:41:33;23.80;45.70
74359;DHT22;62792;46.236;6.040;2022-09-20T13:46:41;23.80;45.60
74359;DHT22;62792;46.236;6.040;2022-09-20T13:51:45;23.90;45.60
74359;DHT22;62792;46.236;6.040;2022-09-20T13:56:49;23.90;45.60
74359;DHT22;62792;46.236;6.040;2022-09-20T14:01:52;23.90;45.90
74359;DHT22;62792;46.236;6.040;2022-09-20T14:06:57;24.00;45.60
74359;DHT22;62792;46.236;6.040;2022-09-20T14:12:01;24.00;45.30
74359;DHT22;62792;46.236;6.040;2022-09-20T14:17:05;24.10;45.30
74359;DHT22;62792;46.236;6.040;2022-09-20T14:22:13;24.10;45.20
74359;DHT22;62792;46.236;6.040;2022-09-20T14:27:19;24.30;45.20
74359;DHT22;62792;46.236;6.040;2022-09-20T14:37:45;24.30;44.90
74359;DHT22;62792;46.236;6.040;2022-09-20T14:42:50;24.10;45.00
74359;DHT22;62792;46.236;6.040;2022-09-20T14:47:58;24.20;45.30
74359;DHT22;62792;46.236;6.040;2022-09-20T14:53:23;24.10;45.30
74359;DHT22;62792;46.236;6.040;2022-09-20T14:58:27;23.90;45.70
74359;DHT22;62792;46.236;6.040;2022-09-20T15:03:31;23.70;45.70
74359;DHT22;62792;46.236;6.040;2022-09-20T15:08:36;23.60;46.90
74359;DHT22;62792;46.236;6.040;2022-09-20T15:13:44;23.50;47.20
74359;DHT22;62792;46.236;6.040;2022-09-20T15:18:47;23.60;47.30
74359;DHT22;62792;46.236;6.040;2022-09-20T15:23:51;23.70;46.60
74359;DHT22;62792;46.236;6.040;2022-09-20T15:28:54;23.80;46.50
74359;DHT22;62792;46.236;6.040;2022-09-20T15:33:56;23.80;46.60
74359;DHT22;62792;46.236;6.040;2022-09-20T15:39:00;23.80;46.80
74359;DHT22;62792;46.236;6.040;2022-09-20T15:44:03;23.90;47.00
74359;DHT22;62792;46.236;6.040;2022-09-20T15:49:13;23.90;47.00
74359;DHT22;62792;46.236;6.040;2022-09-20T15:54:17;23.90;46.90
74359;DHT22;62792;46.236;6.040;2022-09-20T15:59:20;23.90;47.10
74359;DHT22;62792;46.236;6.040;2022-09-20T16:04:23;24.00;47.10
74359;DHT22;62792;46.236;6.040;2022-09-20T16:09:29;24.00;47.20
74359;DHT22;62792;46.236;6.040;2022-09-20T16:14:31;24.00;47.40
74359;DHT22;62792;46.236;6.040;2022-09-20T16:19:34;24.10;47.40
74359;DHT22;62792;46.236;6.040;2022-09-20T16:24:40;24.00;47.40
74359;DHT22;62792;46.236;6.040;2022-09-20T16:29:42;24.10;47.50
74359;DHT22;62792;46.236;6.040;2022-09-20T16:34:45;24.10;47.70
74359;DHT22;62792;46.236;6.040;2022-09-20T16:39:49;24.10;47.60
74359;DHT22;62792;46.236;6.040;2022-09-20T16:44:52;24.10;47.50
74359;DHT22;62792;46.236;6.040;2022-09-20T16:49:54;24.10;47.50
74359;DHT22;62792;46.236;6.040;2022-09-20T16:55:00;24.10;47.90
74359;DHT22;62792;46.236;6.040;2022-09-20T17:00:03;24.00;48.20
74359;DHT22;62792;46.236;6.040;2022-09-20T17:05:07;23.90;48.30
74359;DHT22;62792;46.236;6.040;2022-09-20T17:10:11;23.90;48.40
74359;DHT22;62792;46.236;6.040;2022-09-20T17:15:13;23.80;48.50
74359;DHT22;62792;46.236;6.040;2022-09-20T17:20:16;23.80;48.90
74359;DHT22;62792;46.236;6.040;2022-09-20T17:25:20;23.80;48.60
74359;DHT22;62792;46.236;6.040;2022-09-20T17:30:25;23.70;48.70
74359;DHT22;62792;46.236;6.040;2022-09-20T17:35:29;23.60;49.00
74359;DHT22;62792;46.236;6.040;2022-09-20T17:40:33;23.70;48.90
74359;DHT22;62792;46.236;6.040;2022-09-20T17:45:35;23.60;48.90
74359;DHT22;62792;46.236;6.040;2022-09-20T17:50:38;23.60;49.90
74359;DHT22;62792;46.236;6.040;2022-09-20T17:55:43;23.60;50.20
74359;DHT22;62792;46.236;6.040;2022-09-20T18:00:53;23.60;49.90
74359;DHT22;62792;46.236;6.040;2022-09-20T18:06:09;23.60;50.30
74359;DHT22;62792;46.236;6.040;2022-09-20T18:11:14;23.50;50.30
74359;DHT22;62792;46.236;6.040;2022-09-20T18:16:17;23.40;50.40
74359;DHT22;62792;46.236;6.040;2022-09-20T18:21:20;23.40;50.30
74359;DHT22;62792;46.236;6.040;2022-09-20T18:26:25;23.40;50.50
74359;DHT22;62792;46.236;6.040;2022-09-20T18:31:28;23.40;50.80
74359;DHT22;62792;46.236;6.040;2022-09-20T18:36:34;23.30;50.60
74359;DHT22;62792;46.236;6.040;2022-09-20T18:41:40;23.30;50.70
74359;DHT22;62792;46.236;6.040;2022-09-20T18:46:44;23.20;50.80
74359;DHT22;62792;46.236;6.040;2022-09-20T18:51:47;23.20;50.70
74359;DHT22;62792;46.236;6.040;2022-09-20T18:56:51;23.20;50.90
74359;DHT22;62792;46.236;6.040;2022-09-20T19:02:06;23.10;51.00
74359;DHT22;62792;46.236;6.040;2022-09-20T19:07:15;23.00;50.70
74359;DHT22;62792;46.236;6.040;2022-09-20T19:12:24;23.10;51.10
74359;DHT22;62792;46.236;6.040;2022-09-20T19:17:36;23.00;51.00
74359;DHT22;62792;46.236;6.040;2022-09-20T19:22:42;23.00;50.90
74359;DHT22;62792;46.236;6.040;2022-09-20T19:27:49;23.00;51.20
74359;DHT22;62792;46.236;6.040;2022-09-20T19:32:53;23.00;50.90
74359;DHT22;62792;46.236;6.040;2022-09-20T19:37:58;23.00;51.20
74359;DHT22;62792;46.236;6.040;2022-09-20T19:43:12;22.90;50.90
74359;DHT22;62792;46.236;6.040;2022-09-20T19:48:22;22.90;50.90
74359;DHT22;62792;46.236;6.040;2022-09-20T19:53:26;22.90;51.00
74359;DHT22;62792;46.236;6.040;2022-09-20T19:58:31;22.80;51.00
74359;DHT22;62792;46.236;6.040;2022-09-20T20:03:35;22.80;50.80
74359;DHT22;62792;46.236;6.040;2022-09-20T20:08:39;22.80;51.00
74359;DHT22;62792;46.236;6.040;2022-09-20T20:13:49;22.70;51.10
74359;DHT22;62792;46.236;6.040;2022-09-20T20:19:11;22.80;50.90
74359;DHT22;62792;46.236;6.040;2022-09-20T20:24:20;22.70;51.00
74359;DHT22;62792;46.236;6.040;2022-09-20T20:29:26;22.70;50.90
74359;DHT22;62792;46.236;6.040;2022-09-20T20:34:29;22.60;50.80
74359;DHT22;62792;46.236;6.040;2022-09-20T20:39:33;22.70;50.70
74359;DHT22;62792;46.236;6.040;2022-09-20T20:44:37;22.60;50.70
74359;DHT22;62792;46.236;6.040;2022-09-20T20:49:40;22.60;51.00
74359;DHT22;62792;46.236;6.040;2022-09-20T20:54:42;22.60;50.70
74359;DHT22;62792;46.236;6.040;2022-09-20T20:59:48;22.60;50.90
74359;DHT22;62792;46.236;6.040;2022-09-20T21:04:50;22.50;51.10
74359;DHT22;62792;46.236;6.040;2022-09-20T21:09:54;22.50;50.80
74359;DHT22;62792;46.236;6.040;2022-09-20T21:14:58;22.50;50.60
74359;DHT22;62792;46.236;6.040;2022-09-20T21:20:00;22.50;50.80
74359;DHT22;62792;46.236;6.040;2022-09-20T21:25:03;22.50;50.70
74359;DHT22;62792;46.236;6.040;2022-09-20T21:30:10;22.40;50.80
74359;DHT22;62792;46.236;6.040;2022-09-20T21:35:12;22.50;50.60
74359;DHT22;62792;46.236;6.040;2022-09-20T21:40:15;22.50;50.60
74359;DHT22;62792;46.236;6.040;2022-09-20T21:45:19;22.40;50.60
74359;DHT22;62792;46.236;6.040;2022-09-20T21:50:25;22.40;50.40
74359;DHT22;62792;46.236;6.040;2022-09-20T21:55:27;22.40;50.20
74359;DHT22;62792;46.236;6.040;2022-09-20T22:00:31;22.40;50.20
74359;DHT22;62792;46.236;6.040;2022-09-20T22:05:36;22.40;50.10
74359;DHT22;62792;46.236;6.040;2022-09-20T22:10:38;22.40;49.90
74359;DHT22;62792;46.236;6.040;2022-09-20T22:15:42;22.30;49.90
74359;DHT22;62792;46.236;6.040;2022-09-20T22:20:45;22.30;50.00
74359;DHT22;62792;46.236;6.040;2022-09-20T22:25:54;22.30;49.70
74359;DHT22;62792;46.236;6.040;2022-09-20T22:31:05;22.30;49.60
74359;DHT22;62792;46.236;6.040;2022-09-20T22:36:08;22.30;49.50
74359;DHT22;62792;46.236;6.040;2022-09-20T22:41:11;22.30;49.70
74359;DHT22;62792;46.236;6.040;2022-09-20T22:46:16;22.30;49.60
74359;DHT22;62792;46.236;6.040;2022-09-20T22:51:21;22.30;49.30
74359;DHT22;62792;46.236;6.040;2022-09-20T22:56:24;22.20;49.60
74359;DHT22;62792;46.236;6.040;2022-09-20T23:01:31;22.30;49.20
74359;DHT22;62792;46.236;6.040;2022-09-20T23:06:35;22.20;49.20
74359;DHT22;62792;46.236;6.040;2022-09-20T23:11:38;22.10;49.00
74359;DHT22;62792;46.236;6.040;2022-09-20T23:16:43;22.20;49.30
74359;DHT22;62792;46.236;6.040;2022-09-20T23:21:46;22.20;49.40
74359;DHT22;62792;46.236;6.040;2022-09-20T23:26:49;22.20;49.30
74359;DHT22;62792;46.236;6.040;2022-09-20T23:31:53;22.20;49.00
74359;DHT22;62792;46.236;6.040;2022-09-20T23:36:56;22.20;49.20
74359;DHT22;62792;46.236;6.040;2022-09-20T23:41:58;22.20;49.00
74359;DHT22;62792;46.236;6.040;2022-09-20T23:47:02;22.10;48.50
74359;DHT22;62792;46.236;6.040;2022-09-20T23:52:05;22.20;48.50
74359;DHT22;62792;46.236;6.040;2022-09-20T23:57:08;22.20;48.50
